Time;durP1;ratioP1;P1;durP2;ratioP2;P2;SDS_P1;SDS_P2;PMS_P1;PMS_P2;Temp;Humidity;BMP_temperature;BMP_pressure;BME280_temperature;BME280_humidity;BME280_pressure;Samples;Min_cycle;Max_cycle;Signal;HPM_P1;HPM_P2
2022/03/21 00:00:43;;;;;;;17.35;7.90;;;;;;;-0.10;66.84;96779.66;5092081;28;20052;-75
2022/03/21 00:03:10;;;;;;;15.60;7.28;;;;;;;-0.09;65.66;96782.09;5089170;28;20490;-75
2022/03/21 00:05:36;;;;;;;14.23;7.07;;;;;;;-0.13;66.23;96782.59;5100349;28;20523;-75
2022/03/21 00:08:02;;;;;;;13.07;7.30;;;;;;;-0.26;66.90;96776.22;5108223;28;20035;-75
2022/03/21 00:10:32;;;;;;;14.13;7.03;;;;;;;-0.23;66.26;96781.03;5095638;28;20075;-75
2022/03/21 00:12:59;;;;;;;14.63;7.25;;;;;;;-0.21;66.60;96789.44;5086542;28;20101;-75
2022/03/21 00:15:25;;;;;;;20.10;7.70;;;;;;;-0.31;66.84;96788.84;5081085;28;20548;-75
2022/03/21 00:17:51;;;;;;;14.38;7.70;;;;;;;-0.38;67.22;96793.06;5096794;28;20482;-75
2022/03/21 00:20:16;;;;;;;12.30;6.97;;;;;;;-0.30;67.00;96795.63;5109150;28;20047;-75
2022/03/21 00:22:42;;;;;;;17.98;8.10;;;;;;;-0.34;67.11;96794.34;5091894;28;20539;-75
2022/03/21 00:25:09;;;;;;;15.50;7.50;;;;;;;-0.35;67.88;96792.72;5105277;28;20481;-75
2022/03/21 00:27:36;;;;;;;12.73;7.22;;;;;;;-0.38;67.09;96787.91;5083713;28;20051;-75
2022/03/21 00:30:05;;;;;;;14.85;7.30;;;;;;;-0.49;67.44;96786.47;5099392;28;20521;-75
2022/03/21 00:32:31;;;;;;;14.82;7.25;;;;;;;-0.50;67.55;96790.06;5088574;28;20052;-75
2022/03/21 00:34:57;;;;;;;16.80;8.35;;;;;;;-0.61;67.38;96788.63;5090458;28;20040;-75
2022/03/21 00:37:23;;;;;;;14.80;6.93;;;;;;;-0.65;68.17;96792.50;5109334;28;20042;-75
2022/03/21 00:39:52;;;;;;;20.38;8.00;;;;;;;-0.66;68.36;96801.25;5107753;28;20048;-75
2022/03/21 00:42:18;;;;;;;15.82;7.88;;;;;;;-0.70;68.28;96799.97;5109239;28;20044;-75
2022/03/21 00:44:43;;;;;;;13.98;7.03;;;;;;;-0.79;68.34;96793.19;5097613;28;20047;-75
2022/03/21 00:47:10;;;;;;;14.35;7.15;;;;;;;-0.79;68.39;96800.97;5104896;28;20040;-75
2022/03/21 00:49:36;;;;;;;17.15;8.60;;;;;;;-0.78;68.44;96802.59;5081403;28;20048;-75
2022/03/21 00:52:01;;;;;;;16.17;7.57;;;;;;;-0.74;68.66;96803.88;5092759;28;20571;-75
2022/03/21 00:54:27;;;;;;;14.75;7.88;;;;;;;-0.74;68.61;96803.88;5092521;28;20044;-74
2022/03/21 00:56:53;;;;;;;17.73;8.20;;;;;;;-0.91;68.93;96803.88;5092472;28;20047;-74
2022/03/21 00:59:19;;;;;;;15.98;7.35;;;;;;;-0.90;69.13;96800.34;5092483;28;20051;-75
2022/03/21 01:01:45;;;;;;;15.07;7.57;;;;;;;-0.98;68.77;96802.94;5103427;28;20048;-74
2022/03/21 01:04:10;;;;;;;16.17;7.80;;;;;;;-1.03;69.84;96800.06;5099216;28;20489;-74
2022/03/21 01:06:36;;;;;;;18.05;7.85;;;;;;;-1.04;69.42;96798.44;5099783;28;20040;-75
2022/03/21 01:09:03;;;;;;;14.30;7.47;;;;;;;-1.06;69.53;96795.22;5095004;28;20113;-75
2022/03/21 01:11:29;;;;;;;15.38;8.02;;;;;;;-1.14;69.84;96788.25;5101653;28;20762;-75
2022/03/21 01:13:54;;;;;;;16.38;8.15;;;;;;;-1.21;70.53;96792.47;5107742;28;20039;-76
2022/03/21 01:16:20;;;;;;;14.77;7.72;;;;;;;-1.26;70.23;96790.38;5102920;28;20040;-74
2022/03/21 01:18:45;;;;;;;14.43;7.55;;;;;;;-1.23;70.50;96787.47;5110806;28;20051;-75
2022/03/21 01:21:12;;;;;;;21.92;8.05;;;;;;;-1.28;70.18;96784.59;5092212;28;20108;-75
2022/03/21 01:23:38;;;;;;;16.90;8.15;;;;;;;-1.25;70.63;96797.16;5101836;28;20437;-75
2022/03/21 01:26:04;;;;;;;15.40;7.82;;;;;;;-1.30;70.82;96789.09;5091525;28;20051;-76
2022/03/21 01:28:30;;;;;;;16.90;8.27;;;;;;;-1.32;71.02;96785.88;5078787;28;20040;-75
2022/03/21 01:30:56;;;;;;;17.90;7.65;;;;;;;-1.39;70.58;96784.91;5073099;28;20106;-75
2022/03/21 01:33:21;;;;;;;16.23;8.07;;;;;;;-1.43;70.67;96781.03;5096743;27;20048;-75
2022/03/21 01:35:47;;;;;;;17.58;8.00;;;;;;;-1.41;71.09;96782.50;5095169;28;20040;-76
2022/03/21 01:38:13;;;;;;;15.68;8.32;;;;;;;-1.38;70.71;96786.50;5100948;27;20075;-75
2022/03/21 01:40:39;;;;;;;16.95;8.18;;;;;;;-1.43;71.08;96788.78;5095872;28;20071;-75
2022/03/21 01:43:11;;;;;;;15.68;7.90;;;;;;;-1.39;71.00;96790.09;5094410;28;20097;-75
2022/03/21 01:45:37;;;;;;;14.00;7.38;;;;;;;-1.42;70.86;96785.25;5093585;28;20040;-75
2022/03/21 01:48:03;;;;;;;15.13;7.90;;;;;;;-1.45;71.46;96785.53;5098302;28;20036;-75
2022/03/21 01:50:29;;;;;;;15.85;8.40;;;;;;;-1.58;71.73;96789.44;5090818;28;20044;-75
2022/03/21 01:55:43;;;;;;;15.75;8.30;;;;;;;-1.59;71.91;96787.81;5092804;28;20497;-75
2022/03/21 01:58:11;;;;;;;16.88;8.60;;;;;;;-1.65;71.88;96791.03;5079896;28;20043;-74
2022/03/21 02:00:37;;;;;;;17.20;8.30;;;;;;;-1.78;72.99;96793.28;5110936;28;20039;-75
2022/03/21 02:03:03;;;;;;;16.45;8.63;;;;;;;-1.77;72.61;96793.13;5095894;28;20417;-75
2022/03/21 02:05:29;;;;;;;16.38;7.65;;;;;;;-1.73;72.54;96803.94;5092141;28;20040;-75
2022/03/21 02:07:54;;;;;;;18.70;7.95;;;;;;;-1.78;72.63;96806.16;5092391;28;20032;-74
2022/03/21 02:10:20;;;;;;;19.30;7.88;;;;;;;-1.77;72.86;96803.47;5092821;27;20485;-74
2022/03/21 02:12:46;;;;;;;18.95;7.95;;;;;;;-1.83;73.12;96808.44;5098825;28;20035;-75
2022/03/21 02:15:12;;;;;;;14.68;7.85;;;;;;;-1.83;73.27;96798.13;5100678;28;20114;-75
2022/03/21 02:17:42;;;;;;;17.80;8.73;;;;;;;-1.78;73.08;96801.00;5091514;28;20044;-74
2022/03/21 02:20:08;;;;;;;16.77;7.78;;;;;;;-1.81;72.77;96801.34;5102313;28;20067;-75
2022/03/21 02:22:56;;;;;;;17.25;8.25;;;;;;;-1.87;73.24;96813.09;5103961;28;20040;-75
2022/03/21 02:25:30;;;;;;;15.27;7.75;;;;;;;-1.83;73.25;96813.59;5085782;28;20102;-74
2022/03/21 02:27:59;;;;;;;15.55;8.02;;;;;;;-1.90;73.50;96802.31;5094669;28;20474;-74
2022/03/21 02:30:27;;;;;;;15.70;8.23;;;;;;;-1.98;73.92;96805.69;5090813;28;20043;-75
2022/03/21 02:32:54;;;;;;;17.30;8.63;;;;;;;-2.02;73.66;96810.34;5091384;28;20482;-75
2022/03/21 02:35:21;;;;;;;17.58;8.57;;;;;;;-2.12;74.13;96814.81;5105138;28;20043;-75
2022/03/21 02:37:48;;;;;;;17.77;8.65;;;;;;;-2.09;74.15;96804.97;5082258;28;20078;-74
2022/03/21 02:40:15;;;;;;;18.70;9.05;;;;;;;-2.16;74.33;96803.19;5091850;28;20047;-74
2022/03/21 02:42:40;;;;;;;18.05;8.70;;;;;;;-2.22;74.63;96803.84;5102095;28;20028;-75
2022/03/21 02:45:06;;;;;;;19.92;9.15;;;;;;;-2.22;74.96;96803.84;5100069;28;20032;-74
2022/03/21 02:47:32;;;;;;;17.98;9.05;;;;;;;-2.32;75.72;96804.75;5090265;28;20122;-74
2022/03/21 02:50:02;;;;;;;17.33;9.05;;;;;;;-2.25;75.81;96804.16;5103002;28;20047;-74
2022/03/21 02:52:29;;;;;;;17.02;8.73;;;;;;;-2.21;75.30;96805.44;5103409;28;20532;-75
2022/03/21 02:54:55;;;;;;;16.70;8.60;;;;;;;-2.33;75.13;96798.00;5108892;28;20047;-74
2022/03/21 02:57:21;;;;;;;17.40;8.23;;;;;;;-2.37;74.84;96801.84;5089570;28;20060;-74
2022/03/21 02:59:47;;;;;;;18.17;8.70;;;;;;;-2.37;74.86;96806.19;5108285;28;20181;-75
2022/03/21 03:02:13;;;;;;;19.75;9.13;;;;;;;-2.35;75.53;96805.06;5103338;28;20043;-74
2022/03/21 03:04:39;;;;;;;23.20;9.57;;;;;;;-2.36;75.46;96813.75;5103687;28;20040;-74
2022/03/21 03:07:04;;;;;;;18.52;8.95;;;;;;;-2.36;75.33;96813.75;5071896;28;20060;-74
2022/03/21 03:09:30;;;;;;;17.35;9.02;;;;;;;-2.32;75.78;96809.91;5105315;28;20046;-74
2022/03/21 03:11:56;;;;;;;19.08;9.02;;;;;;;-2.31;75.45;96814.13;5098726;28;20098;-74
2022/03/21 03:14:21;;;;;;;19.23;8.43;;;;;;;-2.32;75.03;96814.28;5102747;28;20483;-74
2022/03/21 03:16:47;;;;;;;20.88;9.00;;;;;;;-2.31;75.11;96821.84;5105371;28;20040;-74
2022/03/21 03:19:13;;;;;;;13.02;7.45;;;;;;;-2.40;75.80;96817.63;5103676;28;20803;-74
2022/03/21 03:21:44;;;;;;;16.65;8.35;;;;;;;-2.44;76.35;96826.66;5101681;28;20048;-74
2022/03/21 03:24:11;;;;;;;16.85;8.50;;;;;;;-2.50;75.97;96822.91;5081558;28;20054;-74
2022/03/21 03:26:37;;;;;;;18.33;9.32;;;;;;;-2.44;76.49;96818.91;5097415;28;20039;-74
2022/03/21 03:29:03;;;;;;;17.30;8.88;;;;;;;-2.50;76.50;96816.94;5106108;28;20046;-75
2022/03/21 03:31:30;;;;;;;16.95;9.40;;;;;;;-2.57;76.93;96816.75;5106987;28;20043;-75
2022/03/21 03:33:56;;;;;;;21.23;9.63;;;;;;;-2.58;77.08;96814.34;5100698;28;20039;-74
2022/03/21 03:36:22;;;;;;;17.25;8.90;;;;;;;-2.53;77.34;96814.66;5091092;28;20043;-74
2022/03/21 03:38:48;;;;;;;18.90;8.75;;;;;;;-2.53;77.45;96823.22;5076960;28;20401;-74
2022/03/21 03:41:15;;;;;;;17.23;7.82;;;;;;;-2.65;77.55;96825.25;5089578;28;20050;-74
2022/03/21 03:43:43;;;;;;;16.80;8.75;;;;;;;-2.72;77.25;96819.09;5074489;28;20047;-74
2022/03/21 03:46:09;;;;;;;20.55;8.80;;;;;;;-2.64;77.82;96821.72;5109009;27;20117;-74
2022/03/21 03:48:35;;;;;;;17.77;8.95;;;;;;;-2.72;77.97;96829.41;5088515;28;20039;-74
2022/03/21 03:51:01;;;;;;;17.75;9.18;;;;;;;-2.76;77.88;96829.84;5088007;28;20055;-74
2022/03/21 03:53:27;;;;;;;17.92;8.50;;;;;;;-2.80;77.79;96824.22;5088943;28;20040;-74
2022/03/21 03:55:53;;;;;;;17.88;8.82;;;;;;;-2.85;77.74;96823.84;5098439;28;20035;-74
2022/03/21 03:58:18;;;;;;;19.83;7.90;;;;;;;-2.89;78.67;96825.91;5108486;28;20047;-74
2022/03/21 04:00:46;;;;;;;16.27;8.52;;;;;;;-2.96;78.93;96828.31;5093270;28;20048;-74
2022/03/21 04:05:56;;;;;;;20.30;9.25;;;;;;;-2.94;78.23;96829.91;5106978;28;20445;-74
2022/03/21 04:08:22;;;;;;;16.52;8.27;;;;;;;-2.99;78.36;96828.59;5100045;28;20048;-74
2022/03/21 04:10:47;;;;;;;18.52;8.90;;;;;;;-2.97;78.77;96825.88;5088902;28;20040;-74
2022/03/21 04:13:13;;;;;;;16.35;8.48;;;;;;;-2.99;78.50;96828.59;5090204;28;20040;-74
2022/03/21 04:15:38;;;;;;;16.77;8.82;;;;;;;-2.98;78.62;96830.22;5096852;28;20070;-73
2022/03/21 04:18:07;;;;;;;16.58;8.32;;;;;;;-2.99;78.54;96833.75;5105780;28;20064;-74
2022/03/21 04:20:36;;;;;;;17.08;8.52;;;;;;;-3.04;78.50;96830.81;5104699;28;20085;-74
2022/03/21 04:23:03;;;;;;;14.85;8.48;;;;;;;-3.07;78.87;96820.81;5107518;28;20473;-74
2022/03/21 04:25:29;;;;;;;17.23;8.25;;;;;;;-3.10;79.69;96826.28;5095814;28;20043;-73
2022/03/21 04:27:55;;;;;;;19.00;8.93;;;;;;;-3.39;80.83;96842.81;5100873;28;20113;-73
2022/03/21 04:30:21;;;;;;;16.42;8.20;;;;;;;-3.23;79.98;96846.44;5090856;28;20074;-72
2022/03/21 04:32:47;;;;;;;19.65;8.65;;;;;;;-3.15;79.26;96849.09;5106513;28;20039;-73
2022/03/21 04:35:14;;;;;;;16.38;8.52;;;;;;;-3.18;79.05;96846.81;5106026;28;20166;-73
2022/03/21 04:37:40;;;;;;;20.73;8.90;;;;;;;-3.18;79.84;96844.25;5105576;28;21612;-73
2022/03/21 04:40:07;;;;;;;17.10;8.77;;;;;;;-3.22;80.01;96842.91;5103762;28;20093;-73
2022/03/21 04:42:37;;;;;;;24.23;9.43;;;;;;;-3.22;80.28;96846.31;5089813;28;20044;-73
2022/03/21 04:45:05;;;;;;;18.17;8.25;;;;;;;-3.25;79.68;96850.94;5092580;28;20132;-72
2022/03/21 04:47:31;;;;;;;17.75;8.05;;;;;;;-3.26;79.80;96852.72;5107978;28;20032;-73
2022/03/21 04:49:57;;;;;;;20.60;8.50;;;;;;;-3.26;79.92;96857.88;5100371;28;20040;-73
2022/03/21 04:52:23;;;;;;;19.98;8.82;;;;;;;-3.19;79.98;96863.22;5091085;28;20056;-73
2022/03/21 04:54:49;;;;;;;19.75;9.52;;;;;;;-3.23;79.61;96867.03;5105254;28;20493;-73
2022/03/21 04:57:20;;;;;;;18.27;8.68;;;;;;;-3.31;79.39;96855.72;5107086;28;20046;-72
2022/03/21 04:59:45;;;;;;;22.45;8.90;;;;;;;-3.28;80.15;96866.69;5094372;28;20134;-72
2022/03/21 05:02:11;;;;;;;15.38;8.07;;;;;;;-3.29;79.62;96865.06;5090092;28;20043;-71
2022/03/21 05:04:37;;;;;;;18.30;8.32;;;;;;;-3.33;80.47;96867.94;5096414;28;20043;-71
2022/03/21 05:07:03;;;;;;;15.70;8.55;;;;;;;-3.43;80.41;96872.38;5098471;28;20493;-73
2022/03/21 05:09:28;;;;;;;16.95;8.52;;;;;;;-3.47;80.24;96873.63;5092070;28;20036;-73
2022/03/21 05:11:54;;;;;;;19.35;9.30;;;;;;;-3.45;80.76;96874.25;5089235;28;20036;-72
2022/03/21 05:14:20;;;;;;;16.33;8.38;;;;;;;-3.41;80.88;96875.59;5091701;28;20035;-72
2022/03/21 05:16:47;;;;;;;16.88;8.07;;;;;;;-3.28;80.53;96879.56;5101626;28;20067;-73
2022/03/21 05:19:12;;;;;;;20.48;9.48;;;;;;;-3.37;80.88;96876.91;5089887;28;20051;-72
2022/03/21 05:21:39;;;;;;;20.90;7.95;;;;;;;-3.36;80.75;96883.69;5100022;28;20036;-71
2022/03/21 06:59:32;;;;;;;20.05;8.07;;;;;;;-0.26;73.08;96928.84;5075272;27;20401;-71
2022/03/21 07:01:58;;;;;;;21.42;9.35;;;;;;;-0.19;74.04;96927.22;5085285;28;20063;-72
2022/03/21 07:04:25;;;;;;;20.02;9.38;;;;;;;0.01;73.46;96942.34;5082708;28;20505;-72
2022/03/21 07:06:51;;;;;;;20.48;9.65;;;;;;;0.09;72.95;96938.94;5084762;28;20041;-72
2022/03/21 07:09:17;;;;;;;18.63;9.80;;;;;;;0.30;71.54;96935.75;5082798;28;20142;-72
2022/03/21 07:11:43;;;;;;;24.73;9.98;;;;;;;0.22;72.12;96938.41;5079002;28;20064;-72
2022/03/21 07:14:08;;;;;;;23.33;10.40;;;;;;;0.51;70.89;96938.56;5075115;28;20584;-73
2022/03/21 07:16:34;;;;;;;19.30;10.73;;;;;;;0.51;71.94;96946.34;5066900;28;20508;-72
2022/03/21 07:19:00;;;;;;;21.50;10.60;;;;;;;0.38;72.03;96943.50;5071592;28;20048;-72
2022/03/21 07:21:26;;;;;;;27.63;11.48;;;;;;;0.44;73.30;96942.81;5081291;28;20036;-73
2022/03/21 07:23:51;;;;;;;22.13;10.95;;;;;;;0.44;73.03;96937.63;5070333;28;20048;-72
2022/03/21 07:26:17;;;;;;;20.58;10.98;;;;;;;0.57;71.77;96946.66;5078176;28;20041;-72
2022/03/21 07:28:42;;;;;;;24.23;10.80;;;;;;;0.76;70.83;96951.41;5072802;28;20043;-75
2022/03/21 07:31:09;;;;;;;26.20;11.57;;;;;;;0.77;70.99;96953.00;5075887;28;20047;-72
2022/03/21 07:33:39;;;;;;;25.88;11.85;;;;;;;0.75;72.58;96952.38;5073149;28;20098;-73
2022/03/21 07:36:05;;;;;;;23.45;11.90;;;;;;;0.90;71.16;96956.81;5076646;28;20032;-75
2022/03/21 07:38:31;;;;;;;23.95;11.02;;;;;;;1.23;68.95;96966.97;5069645;28;20414;-75
2022/03/21 07:40:59;;;;;;;25.20;11.55;;;;;;;1.70;66.63;96968.50;5078380;28;20040;-74
2022/03/21 07:43:25;;;;;;;27.90;11.57;;;;;;;1.89;65.58;96965.38;5079000;28;20051;-74
2022/03/21 07:48:34;;;;;;;21.50;10.77;;;;;;;1.75;67.54;96960.97;5080260;28;20154;-74
2022/03/21 07:51:00;;;;;;;23.27;11.30;;;;;;;1.72;67.78;96971.72;5075454;28;20040;-74
2022/03/21 07:53:26;;;;;;;25.45;11.90;;;;;;;1.67;66.82;96969.66;5083535;28;20174;-73
2022/03/21 07:55:51;;;;;;;28.10;11.35;;;;;;;1.75;66.91;96966.16;5077206;28;20037;-74
2022/03/21 07:58:17;;;;;;;28.67;11.13;;;;;;;1.77;67.08;96968.59;5078754;28;20037;-74
2022/03/21 08:00:44;;;;;;;25.42;11.50;;;;;;;2.03;66.12;96968.19;5074983;28;20041;-73
2022/03/21 08:03:14;;;;;;;24.70;11.63;;;;;;;2.12;65.58;96972.28;5073121;28;20040;-72
2022/03/21 08:05:40;;;;;;;22.42;11.25;;;;;;;2.11;65.87;96975.06;5074231;28;20116;-73
2022/03/21 08:08:07;;;;;;;25.27;11.23;;;;;;;2.38;62.48;96976.22;5085028;28;20047;-71
2022/03/21 08:10:35;;;;;;;21.02;11.32;;;;;;;2.59;60.99;96978.88;5069687;28;20494;-70
2022/03/21 08:13:01;;;;;;;22.02;11.20;;;;;;;2.98;59.69;96981.28;5059902;28;20041;-71
2022/03/21 08:15:27;;;;;;;23.77;11.95;;;;;;;2.87;62.17;96980.75;5064636;28;20513;-74
2022/03/21 08:17:59;;;;;;;27.23;11.20;;;;;;;2.89;59.90;96978.00;5051769;28;20040;-72
2022/03/21 08:20:33;;;;;;;21.30;11.18;;;;;;;3.04;60.68;96980.53;5061441;28;20411;-75
2022/03/21 08:23:05;;;;;;;27.42;11.00;;;;;;;3.17;60.76;96975.47;5060767;28;20041;-73
2022/03/21 08:25:32;;;;;;;21.42;10.98;;;;;;;3.15;59.79;96972.25;5060663;28;20045;-74
2022/03/21 08:27:57;;;;;;;23.13;10.57;;;;;;;3.37;59.27;96980.06;5060936;28;20506;-72
2022/03/21 08:30:23;;;;;;;20.40;10.73;;;;;;;3.45;58.74;96979.94;5053915;28;20130;-71
2022/03/21 08:32:49;;;;;;;20.77;10.48;;;;;;;3.70;58.22;96976.91;5052376;28;20056;-72
2022/03/21 08:35:17;;;;;;;21.23;11.30;;;;;;;3.60;59.38;96975.44;5065263;28;20044;-72
2022/03/21 08:37:44;;;;;;;25.80;11.77;;;;;;;3.41;59.71;96976.09;5070776;28;20044;-72
2022/03/21 08:40:10;;;;;;;20.20;11.32;;;;;;;3.60;57.62;96980.63;5071528;28;20051;-72
2022/03/21 08:42:37;;;;;;;22.83;11.52;;;;;;;3.83;56.61;96979.59;5060411;28;20443;-75
2022/03/21 08:45:07;;;;;;;22.52;12.35;;;;;;;3.76;58.26;96986.56;5066569;28;20048;-72
2022/03/21 08:47:34;;;;;;;22.42;11.18;;;;;;;3.90;56.90;96985.66;5057981;28;20422;-71
2022/03/21 08:49:59;;;;;;;23.48;11.57;;;;;;;4.14;56.53;96988.81;5055418;28;20703;-73
2022/03/21 08:52:25;;;;;;;26.73;11.75;;;;;;;4.16;56.91;96984.22;5053812;28;20045;-72
2022/03/21 08:54:51;;;;;;;21.98;11.32;;;;;;;4.13;58.00;96989.81;5058707;28;20037;-73
2022/03/21 08:57:17;;;;;;;25.65;12.13;;;;;;;4.49;54.06;96978.38;5067403;28;20036;-76
2022/03/21 08:59:44;;;;;;;24.52;11.45;;;;;;;4.75;53.96;96982.06;5054867;28;20041;-73
2022/03/21 09:02:10;;;;;;;25.08;11.65;;;;;;;4.99;53.41;96973.72;5051738;28;20068;-71
2022/03/21 09:04:35;;;;;;;30.10;12.85;;;;;;;4.96;53.02;96984.53;5053067;28;20044;-71
2022/03/21 09:07:01;;;;;;;22.63;12.00;;;;;;;5.14;51.04;96977.97;5051381;28;20090;-72
2022/03/21 09:09:27;;;;;;;31.20;12.27;;;;;;;5.21;51.62;96973.56;5056689;28;20040;-72
2022/03/21 09:11:52;;;;;;;23.73;12.13;;;;;;;5.24;51.33;96970.53;5060075;28;20052;-75
2022/03/21 09:14:18;;;;;;;22.25;11.57;;;;;;;5.61;56.34;96981.41;5053271;28;20051;-72
2022/03/21 09:16:44;;;;;;;24.13;11.63;;;;;;;5.60;50.48;96979.78;5063606;28;20045;-70
2022/03/21 09:19:10;;;;;;;27.42;12.85;;;;;;;5.83;51.53;96978.59;5059668;28;20133;-71
2022/03/21 09:21:37;;;;;;;25.55;12.65;;;;;;;5.81;49.71;96975.38;5064049;28;20421;-71
2022/03/21 09:24:03;;;;;;;22.45;13.05;;;;;;;6.03;50.25;96973.38;5067349;28;20662;-71
2022/03/21 09:26:29;;;;;;;32.50;13.45;;;;;;;6.01;50.10;96976.19;5055783;28;20459;-72
2022/03/21 09:29:03;;;;;;;26.50;13.00;;;;;;;6.16;49.61;96978.59;5059885;28;20037;-73
2022/03/21 09:31:29;;;;;;;28.45;13.82;;;;;;;6.24;48.11;96969.72;5053654;28;20510;-72
2022/03/21 09:33:59;;;;;;;29.33;14.23;;;;;;;6.36;48.66;96970.66;5052681;28;20033;-72
2022/03/21 09:36:25;;;;;;;28.98;14.27;;;;;;;6.46;48.24;96966.81;5058703;28;20513;-72
2022/03/21 09:38:52;;;;;;;31.40;13.90;;;;;;;6.63;48.36;96967.94;5058086;28;20569;-72
2022/03/21 09:41:23;;;;;;;26.10;13.40;;;;;;;7.14;49.62;96963.69;5062337;28;20037;-72
2022/03/21 09:43:54;;;;;;;29.67;14.48;;;;;;;7.49;46.71;96959.81;5051812;28;20041;-72
2022/03/21 09:46:21;;;;;;;33.47;15.38;;;;;;;7.84;48.10;96960.09;5051645;28;20086;-72
2022/03/21 09:48:48;;;;;;;27.88;14.45;;;;;;;8.03;46.30;96955.69;5060495;28;20048;-73
2022/03/21 09:51:20;;;;;;;29.75;15.02;;;;;;;8.10;47.70;96961.69;5064283;28;20048;-73
2022/03/21 09:53:46;;;;;;;32.38;16.17;;;;;;;7.79;46.34;96950.25;5056540;28;20041;-72
2022/03/21 09:56:12;;;;;;;30.83;15.73;;;;;;;7.63;46.51;96956.06;5064875;28;20048;-71
2022/03/21 09:58:38;;;;;;;29.15;14.80;;;;;;;7.84;45.27;96956.69;5067882;28;20055;-72
2022/03/21 10:01:03;;;;;;;33.97;16.65;;;;;;;7.94;44.53;96956.97;5065912;28;20522;-71
2022/03/21 10:03:29;;;;;;;37.22;16.98;;;;;;;8.10;44.98;96951.19;5057232;28;20083;-72
2022/03/21 10:05:55;;;;;;;34.70;15.63;;;;;;;8.46;43.85;96949.63;5059765;28;20036;-71
2022/03/21 10:08:24;;;;;;;31.92;16.42;;;;;;;8.45;43.62;96958.50;5065103;28;20119;-72
2022/03/21 10:11:04;;;;;;;33.55;16.50;;;;;;;8.88;43.95;96948.06;5050345;28;20037;-71
2022/03/21 10:13:38;;;;;;;29.45;16.50;;;;;;;9.05;42.87;96956.94;5061507;28;20498;-72
2022/03/21 10:16:16;;;;;;;35.22;16.98;;;;;;;9.11;42.07;96945.53;5056202;28;20063;-71
2022/03/21 10:18:53;;;;;;;30.77;15.40;;;;;;;10.00;40.68;96946.56;5060796;28;20046;-72
2022/03/21 10:21:29;;;;;;;36.92;16.00;;;;;;;11.18;37.98;96934.88;5057146;28;20044;-71
2022/03/21 10:24:06;;;;;;;38.08;16.23;;;;;;;12.41;37.07;96936.69;5056398;28;20033;-72
2022/03/21 10:26:33;;;;;;;33.10;16.50;;;;;;;11.99;36.12;96933.75;5064961;28;20125;-71
2022/03/21 10:29:01;;;;;;;38.00;17.85;;;;;;;12.35;36.73;96931.59;5054916;28;20041;-72
2022/03/21 10:31:45;;;;;;;35.63;16.83;;;;;;;12.65;35.19;96931.94;5047901;28;20102;-73
2022/03/21 10:34:16;;;;;;;33.60;17.40;;;;;;;12.11;35.89;96931.81;5057443;28;20094;-73
2022/03/21 10:37:05;;;;;;;38.20;18.42;;;;;;;14.38;33.72;96930.13;5061899;28;20587;-72
2022/03/21 10:39:33;;;;;;;34.58;16.65;;;;;;;14.78;32.50;96929.75;5057370;28;20044;-74
2022/03/21 10:42:01;;;;;;;35.30;16.15;;;;;;;14.69;31.91;96930.25;5059505;28;20564;-72
2022/03/21 10:44:27;;;;;;;28.25;15.30;;;;;;;15.00;31.13;96925.03;5066853;28;20044;-74
2022/03/21 10:46:54;;;;;;;29.05;15.35;;;;;;;15.30;29.56;96928.78;5062396;28;20041;-74
2022/03/21 10:49:32;;;;;;;30.27;15.23;;;;;;;15.72;30.04;96919.72;5049453;28;20052;-74
2022/03/21 10:51:58;;;;;;;26.77;15.05;;;;;;;15.02;29.71;96922.91;5057128;28;20028;-70
2022/03/21 10:54:43;;;;;;;28.65;14.82;;;;;;;14.82;30.15;96925.50;5057151;28;20648;-72
2022/03/21 10:57:43;;;;;;;;;;;;;;;15.54;28.66;96917.63;5059226;28;20044;-72
2022/03/21 11:00:21;;;;;;;25.20;13.75;;;;;;;14.34;30.28;96918.44;5046782;28;19975;-72
2022/03/21 11:02:54;;;;;;;28.08;13.48;;;;;;;14.59;30.43;96913.50;5060417;28;20052;-73
2022/03/21 11:05:20;;;;;;;23.50;13.43;;;;;;;15.47;30.26;96911.78;5050588;28;20103;-71
2022/03/21 11:07:47;;;;;;;23.23;14.20;;;;;;;14.35;30.52;96920.03;5050420;28;20217;-72
2022/03/21 11:10:13;;;;;;;24.83;14.40;;;;;;;15.80;28.74;96914.97;5063490;28;20033;-71
2022/03/21 11:12:42;;;;;;;26.13;14.52;;;;;;;14.94;29.25;96910.19;5057324;28;20045;-70
2022/03/21 11:15:12;;;;;;;25.25;13.07;;;;;;;14.53;31.30;96910.03;5049161;28;20037;-72
2022/03/21 11:17:38;;;;;;;19.58;12.80;;;;;;;15.67;29.45;96911.75;5049699;28;20141;-72
2022/03/21 11:20:05;;;;;;;20.73;13.18;;;;;;;17.47;27.51;96908.31;5050392;28;20119;-71
2022/03/21 11:22:34;;;;;;;25.75;13.05;;;;;;;17.78;24.77;96902.69;5060876;28;20041;-71
2022/03/21 11:25:18;;;;;;;19.50;12.77;;;;;;;18.08;26.25;96900.81;5053822;28;20109;-71
2022/03/21 11:28:21;;;;;;;20.88;12.55;;;;;;;18.07;27.86;96893.13;5056286;28;20506;-71
2022/03/21 11:31:05;;;;;;;21.13;12.65;;;;;;;18.59;25.48;96882.63;5048336;28;20037;-72
2022/03/21 11:33:40;;;;;;;25.92;13.40;;;;;;;18.47;26.63;96880.41;5055183;28;20041;-71
2022/03/21 11:36:09;;;;;;;19.70;12.68;;;;;;;18.41;25.75;96882.31;5054800;28;20045;-72
2022/03/21 11:38:45;;;;;;;18.10;12.38;;;;;;;18.11;25.50;96886.16;5053124;28;20387;-72
2022/03/21 11:41:21;;;;;;;20.02;13.13;;;;;;;17.75;25.89;96881.19;5050965;28;20036;-72
2022/03/21 11:44:06;;;;;;;22.30;12.90;;;;;;;18.41;25.22;96874.34;5053909;28;20063;-72
2022/03/21 11:46:37;;;;;;;20.15;12.50;;;;;;;17.75;25.88;96876.66;5052720;28;20044;-73
2022/03/21 11:49:25;;;;;;;20.48;12.82;;;;;;;17.83;24.95;96868.03;5069383;28;20112;-73
2022/03/21 11:51:58;;;;;;;24.45;13.35;;;;;;;18.31;25.70;96874.47;5055271;28;20049;-72
2022/03/21 11:54:31;;;;;;;20.83;12.80;;;;;;;17.11;25.13;96873.22;5055899;28;20032;-73
2022/03/21 11:57:03;;;;;;;17.48;11.82;;;;;;;18.37;24.98;96870.66;5054428;28;20033;-73
2022/03/21 11:59:34;;;;;;;19.58;12.80;;;;;;;19.05;23.50;96868.69;5058339;28;20070;-75
2022/03/21 12:02:12;;;;;;;18.35;13.18;;;;;;;18.02;24.87;96864.69;5069248;28;20091;-76
2022/03/21 12:04:41;;;;;;;19.63;13.05;;;;;;;18.48;23.85;96861.44;5068198;28;20078;-77
2022/03/21 12:07:13;;;;;;;17.33;12.48;;;;;;;17.45;25.63;96867.88;5061298;28;20052;-75
2022/03/21 12:09:44;;;;;;;18.17;13.02;;;;;;;15.19;27.54;96863.53;5074933;28;20139;-75
2022/03/21 12:12:11;;;;;;;20.33;12.52;;;;;;;18.33;24.84;96864.31;5050178;28;20063;-74
2022/03/21 12:15:00;;;;;;;18.23;12.23;;;;;;;19.17;23.34;96855.66;5053295;28;20049;-76
2022/03/21 12:17:27;;;;;;;17.02;12.27;;;;;;;19.75;23.12;96842.94;5062329;28;20049;-75
2022/03/21 12:19:55;;;;;;;18.00;12.18;;;;;;;19.62;22.23;96849.06;5063226;28;20041;-75
2022/03/21 12:22:29;;;;;;;17.60;11.80;;;;;;;18.82;23.92;96847.13;5051142;28;20054;-74
2022/03/21 12:25:29;;;;;;;20.67;12.60;;;;;;;18.25;24.60;96846.31;5060476;28;20433;-75
2022/03/21 12:27:59;;;;;;;18.30;12.73;;;;;;;18.56;24.97;96840.56;5057835;28;20048;-75
2022/03/21 12:30:29;;;;;;;20.35;12.55;;;;;;;18.72;23.73;96836.59;5055327;28;20056;-74
2022/03/21 12:33:00;;;;;;;24.73;12.75;;;;;;;18.40;24.73;96832.75;5061272;28;20048;-74
2022/03/21 12:35:32;;;;;;;19.17;13.02;;;;;;;18.76;24.38;96832.28;5055402;28;20044;-74
2022/03/21 12:38:06;;;;;;;18.13;12.63;;;;;;;17.56;23.68;96825.22;5063419;28;20041;-74
2022/03/21 12:40:34;;;;;;;18.83;12.07;;;;;;;17.82;23.83;96823.06;5058579;28;20036;-73
2022/03/21 12:43:03;;;;;;;19.40;13.15;;;;;;;16.78;25.02;96838.34;5067354;28;20048;-73
2022/03/21 12:45:30;;;;;;;20.17;12.43;;;;;;;17.38;24.33;96827.50;5052818;28;20041;-73
2022/03/21 12:48:05;;;;;;;21.88;12.93;;;;;;;18.50;23.94;96822.00;5058654;28;20044;-74
2022/03/21 12:50:33;;;;;;;19.00;11.82;;;;;;;18.16;25.03;96816.84;5056079;28;20037;-73
2022/03/21 12:53:01;;;;;;;18.90;12.95;;;;;;;19.00;22.70;96823.41;5067150;28;20048;-73
2022/03/21 12:55:27;;;;;;;23.25;12.40;;;;;;;17.83;24.18;96820.13;5051168;28;20041;-73
2022/03/21 12:57:57;;;;;;;19.27;12.20;;;;;;;17.39;25.73;96821.09;5053916;28;20041;-73
2022/03/21 13:00:26;;;;;;;18.00;12.63;;;;;;;19.43;22.01;96809.88;5051723;28;20041;-73
2022/03/21 13:02:55;;;;;;;20.17;12.73;;;;;;;18.73;23.32;96813.38;5052747;28;20060;-72
2022/03/21 13:10:56;;;;;;;19.13;11.77;;;;;;;17.88;24.51;96815.81;5069172;28;20060;-73
2022/03/21 13:13:22;;;;;;;22.27;12.20;;;;;;;19.15;23.46;96809.81;5066840;28;20165;-70
2022/03/21 13:16:11;;;;;;;21.73;12.50;;;;;;;18.12;23.92;96813.94;5064642;28;20116;-70
2022/03/21 13:18:39;;;;;;;19.95;13.20;;;;;;;18.14;23.04;96809.09;5056857;28;20041;-70